createdAt,value
2023-06-19T00:01:12.220Z,74.61
2023-06-19T00:03:39.845Z,74.82
2023-06-19T00:06:07.090Z,74.93
2023-06-19T00:08:35.538Z,75.05
2023-06-19T00:11:02.377Z,75.61
2023-06-19T00:13:30.033Z,75.83
2023-06-19T00:16:01.526Z,76.01
2023-06-19T00:18:29.896Z,76.44
2023-06-19T00:22:53.021Z,76.62
2023-06-19T00:25:21.389Z,76.69
2023-06-19T00:27:49.124Z,76.96
2023-06-19T00:30:16.506Z,77.41
2023-06-19T00:32:51.279Z,77.60
2023-06-19T00:35:19.467Z,77.82
2023-06-19T00:37:48.302Z,77.76
2023-06-19T00:40:30.158Z,77.67
2023-06-19T00:42:57.341Z,77.45
2023-06-19T00:45:27.864Z,77.32
2023-06-19T00:47:55.967Z,77.27
2023-06-19T00:50:23.717Z,77.26
2023-06-19T00:52:51.079Z,77.31
2023-06-19T00:55:18.464Z,77.07
2023-06-19T00:57:45.750Z,77.21
2023-06-19T01:00:13.921Z,77.56
2023-06-19T01:02:41.482Z,77.76
2023-06-19T01:05:09.113Z,78.15
2023-06-19T01:08:05.777Z,78.55
2023-06-19T01:10:48.832Z,78.78
2023-06-19T01:13:30.105Z,78.87
2023-06-19T01:15:57.406Z,78.84
2023-06-19T01:18:24.645Z,78.89
2023-06-19T01:20:51.688Z,79.09
2023-06-19T01:23:18.841Z,79.08
2023-06-19T01:25:46.721Z,79.20
2023-06-19T01:28:13.952Z,79.31
2023-06-19T01:30:42.428Z,79.46
2023-06-19T01:33:16.894Z,79.81
2023-06-19T01:35:44.390Z,79.97
2023-06-19T01:38:11.981Z,80.01
2023-06-19T01:40:39.641Z,80.08
2023-06-19T01:43:06.861Z,79.96
2023-06-19T01:45:34.665Z,79.77
2023-06-19T01:48:02.164Z,79.67
2023-06-19T01:50:29.683Z,79.66
2023-06-19T01:52:56.952Z,79.75
2023-06-19T01:55:24.350Z,79.55
2023-06-19T01:57:51.508Z,79.44
2023-06-19T02:00:20.644Z,79.56
2023-06-19T02:02:48.538Z,79.62
2023-06-19T02:12:23.009Z,79.43
2023-06-19T02:14:50.279Z,79.49
2023-06-19T02:17:17.349Z,79.44
2023-06-19T02:19:44.734Z,79.59
2023-06-19T02:22:12.448Z,79.74
2023-06-19T02:24:40.810Z,79.00
2023-06-19T02:27:08.179Z,76.91
2023-06-19T02:29:35.249Z,73.74
2023-06-19T02:32:03.945Z,71.58
2023-06-19T02:34:31.318Z,69.86
2023-06-19T02:36:58.695Z,68.10
2023-06-19T02:39:25.972Z,66.07
2023-06-19T02:41:53.454Z,64.65
2023-06-19T02:44:20.368Z,63.28
2023-06-19T02:46:48.623Z,61.80
2023-06-19T02:49:16.626Z,60.65
2023-06-19T02:51:43.784Z,59.02
2023-06-19T02:54:10.789Z,57.59
2023-06-19T02:56:38.934Z,56.52
2023-06-19T02:59:05.996Z,56.18
2023-06-19T03:01:33.484Z,56.08
2023-06-19T03:04:01.278Z,55.98
2023-06-19T03:06:29.267Z,55.88
2023-06-19T03:08:57.947Z,55.66
2023-06-19T03:11:25.332Z,55.35
2023-06-19T03:13:53.723Z,55.33
2023-06-19T03:16:21.269Z,55.22
2023-06-19T03:18:52.902Z,54.85
2023-06-19T03:21:23.254Z,55.04
2023-06-19T03:23:51.499Z,54.80
2023-06-19T03:26:21.208Z,54.54
2023-06-19T03:28:48.977Z,53.78
2023-06-19T03:31:16.763Z,53.00
2023-06-19T03:33:44.672Z,52.41
2023-06-19T03:36:12.025Z,52.22
2023-06-19T03:38:52.831Z,51.85
2023-06-19T03:41:22.156Z,51.64
2023-06-19T03:43:49.486Z,52.62
2023-06-19T03:46:17.002Z,53.15
2023-06-19T03:48:44.282Z,53.65
2023-06-19T03:51:12.802Z,54.36
2023-06-19T03:53:39.993Z,55.55
2023-06-19T03:56:07.876Z,57.06
2023-06-19T03:58:34.833Z,58.66
2023-06-19T04:01:02.982Z,59.85
2023-06-19T04:03:31.074Z,60.84
2023-06-19T04:05:58.253Z,60.78
2023-06-19T04:08:26.793Z,61.91
2023-06-19T04:10:54.140Z,62.79
2023-06-19T04:13:22.361Z,63.54
2023-06-19T04:15:51.270Z,62.62
2023-06-19T04:18:19.522Z,59.64
2023-06-19T04:20:46.741Z,57.16
2023-06-19T04:23:14.196Z,57.40
2023-06-19T04:25:41.424Z,54.97
2023-06-19T04:28:08.465Z,53.04
2023-06-19T04:30:35.659Z,52.31
2023-06-19T04:33:02.691Z,51.60
2023-06-19T04:35:29.977Z,50.39
2023-06-19T04:37:56.946Z,50.14
2023-06-19T04:40:24.837Z,49.49
2023-06-19T04:42:57.319Z,48.87
2023-06-19T04:45:24.586Z,48.52
2023-06-19T04:47:53.848Z,48.06
2023-06-19T04:50:22.771Z,48.03
2023-06-19T04:52:52.474Z,47.61
2023-06-19T04:55:20.776Z,47.03
2023-06-19T04:57:48.256Z,46.50
2023-06-19T05:00:16.621Z,46.56
2023-06-19T05:02:47.122Z,46.41
2023-06-19T05:05:14.823Z,46.36
2023-06-19T05:07:42.073Z,46.35
2023-06-19T05:10:10.118Z,45.14
2023-06-19T05:12:37.585Z,44.94
2023-06-19T05:15:05.596Z,44.90
2023-06-19T05:17:33.499Z,44.17
2023-06-19T05:20:00.857Z,43.09
2023-06-19T05:22:28.577Z,41.91
2023-06-19T05:24:55.801Z,40.08
2023-06-19T05:27:23.061Z,38.94
2023-06-19T05:29:50.183Z,38.03
2023-06-19T05:32:18.651Z,37.51
2023-06-19T05:34:46.109Z,36.76
2023-06-19T05:37:13.276Z,35.74
2023-06-19T05:39:40.881Z,35.38
2023-06-19T05:42:08.480Z,35.05
2023-06-19T05:44:36.805Z,34.49
2023-06-19T05:47:04.564Z,33.90
2023-06-19T05:49:31.715Z,33.03
2023-06-19T05:52:02.340Z,33.12
2023-06-19T05:54:29.674Z,32.97
2023-06-19T05:56:56.984Z,32.53
2023-06-19T05:59:24.154Z,31.57
2023-06-19T06:01:51.897Z,31.98
2023-06-19T06:04:19.822Z,31.96
2023-06-19T06:06:46.868Z,31.77
2023-06-19T06:09:14.499Z,31.18
2023-06-19T06:11:41.685Z,30.87
2023-06-19T06:14:09.843Z,30.70
2023-06-19T06:16:38.562Z,30.45
2023-06-19T06:19:05.677Z,29.37
2023-06-19T06:21:33.301Z,29.27
2023-06-19T06:24:00.428Z,29.10
2023-06-19T06:26:29.279Z,29.52
2023-06-19T06:28:56.708Z,29.69
2023-06-19T06:31:24.832Z,30.34
2023-06-19T06:33:51.969Z,30.70
2023-06-19T06:36:33.587Z,30.48
2023-06-19T06:39:02.832Z,30.05
2023-06-19T06:41:30.066Z,29.79
2023-06-19T06:43:57.264Z,29.89
2023-06-19T06:46:24.593Z,29.57
2023-06-19T06:48:52.038Z,28.73
2023-06-19T06:51:19.178Z,28.58
2023-06-19T06:53:46.362Z,28.17
2023-06-19T06:56:13.429Z,28.35
2023-06-19T06:58:40.980Z,29.48
2023-06-19T07:01:08.427Z,29.42
2023-06-19T07:03:36.300Z,29.52
2023-06-19T07:06:04.183Z,30.17
2023-06-19T07:08:31.502Z,30.24
2023-06-19T07:11:00.281Z,30.39
2023-06-19T07:13:28.173Z,30.63
2023-06-19T07:15:55.386Z,30.61
2023-06-19T07:18:23.152Z,30.10
2023-06-19T07:20:50.231Z,29.72
2023-06-19T07:23:17.478Z,29.46
2023-06-19T07:25:44.608Z,29.81
2023-06-19T07:28:11.955Z,29.93
2023-06-19T07:30:40.045Z,29.42
2023-06-19T07:33:07.495Z,28.69
2023-06-19T07:35:35.586Z,28.15
2023-06-19T07:38:02.825Z,28.27
2023-06-19T07:40:30.647Z,28.12
2023-06-19T07:42:58.074Z,28.10
2023-06-19T07:45:25.503Z,28.78
2023-06-19T07:47:57.213Z,28.53
2023-06-19T07:50:27.288Z,28.11
2023-06-19T07:52:55.217Z,27.61
2023-06-19T07:55:22.509Z,27.02
2023-06-19T07:57:49.627Z,26.53
2023-06-19T08:00:18.116Z,26.56
2023-06-19T08:02:45.535Z,26.62
2023-06-19T08:05:13.030Z,26.02
2023-06-19T08:07:40.392Z,26.01
2023-06-19T08:10:14.172Z,25.88
2023-06-19T08:12:43.580Z,26.44
2023-06-19T08:15:12.854Z,26.05
2023-06-19T08:17:40.175Z,26.25
2023-06-19T08:20:08.445Z,26.72
2023-06-19T08:22:36.449Z,26.47
2023-06-19T08:25:05.581Z,26.08
2023-06-19T08:27:32.850Z,26.62
2023-06-19T08:30:00.268Z,26.90
2023-06-19T08:32:28.261Z,27.17
2023-06-19T08:34:55.672Z,27.16
2023-06-19T08:37:22.864Z,26.12
2023-06-19T08:39:50.050Z,26.41
2023-06-19T08:42:17.383Z,26.53
2023-06-19T08:44:44.448Z,26.42
2023-06-19T08:47:11.738Z,26.48
2023-06-19T08:49:39.024Z,26.73
2023-06-19T08:52:06.789Z,27.02
2023-06-19T08:54:34.859Z,27.32
2023-06-19T08:57:02.944Z,26.71
2023-06-19T08:59:32.572Z,26.84
2023-06-19T09:01:59.692Z,26.99
2023-06-19T09:04:32.438Z,27.64
2023-06-19T09:07:05.617Z,28.23
2023-06-19T09:09:47.012Z,27.33
2023-06-19T09:19:57.441Z,28.53
2023-06-19T09:22:26.653Z,29.13
2023-06-19T09:24:53.706Z,29.29
2023-06-19T09:27:21.543Z,29.65
2023-06-19T09:29:50.786Z,29.74
2023-06-19T09:32:22.511Z,29.79
2023-06-19T09:34:52.451Z,29.14
2023-06-19T09:37:27.164Z,28.58
2023-06-19T09:39:55.851Z,29.11
2023-06-19T09:42:31.844Z,29.29
2023-06-19T09:45:06.495Z,29.09
2023-06-19T09:47:39.386Z,29.42
2023-06-19T09:50:10.475Z,29.45
2023-06-19T09:52:37.849Z,29.42
2023-06-19T09:55:07.778Z,29.25
2023-06-19T09:57:35.278Z,28.86
2023-06-19T10:00:11.149Z,29.14
2023-06-19T10:02:43.941Z,28.60
2023-06-19T10:05:14.943Z,29.28
2023-06-19T10:07:44.426Z,29.36
2023-06-19T10:10:14.207Z,29.22
2023-06-19T10:12:45.832Z,29.73
2023-06-19T10:15:20.207Z,30.11
2023-06-19T10:17:48.452Z,29.62
2023-06-19T10:20:33.206Z,30.12
2023-06-19T10:23:01.354Z,30.79
2023-06-19T10:25:29.994Z,30.98
2023-06-19T10:27:58.103Z,31.22
2023-06-19T10:30:25.315Z,30.81
2023-06-19T10:32:52.590Z,30.53
2023-06-19T10:35:22.579Z,30.35
2023-06-19T10:37:50.230Z,30.69
2023-06-19T10:40:17.916Z,30.81
2023-06-19T10:42:45.788Z,30.91
2023-06-19T10:45:13.806Z,30.95
2023-06-19T10:47:41.222Z,30.74
2023-06-19T10:50:15.175Z,30.86
2023-06-19T10:52:46.023Z,30.54
2023-06-19T10:55:13.726Z,30.96
2023-06-19T10:57:50.972Z,31.26
2023-06-19T11:00:25.995Z,30.88
2023-06-19T11:02:53.554Z,29.90
2023-06-19T11:05:21.559Z,29.48
2023-06-19T11:07:55.862Z,29.53
2023-06-19T11:10:28.128Z,29.57
2023-06-19T11:12:56.312Z,30.23
2023-06-19T11:15:33.300Z,30.56
2023-06-19T11:18:01.574Z,29.96
2023-06-19T11:20:29.531Z,29.99
2023-06-19T11:23:01.074Z,30.56
2023-06-19T11:25:38.074Z,30.10
2023-06-19T11:28:06.833Z,30.09
2023-06-19T11:30:35.246Z,30.52
2023-06-19T11:33:03.536Z,30.37
2023-06-19T11:35:37.726Z,30.35
2023-06-19T11:38:06.909Z,30.34
2023-06-19T11:40:41.411Z,30.37
2023-06-19T11:43:10.113Z,30.14
2023-06-19T11:45:51.019Z,30.09
2023-06-19T11:48:43.705Z,30.14
2023-06-19T11:51:15.537Z,30.77
2023-06-19T11:53:44.324Z,30.53
2023-06-19T11:56:12.030Z,30.22
2023-06-19T11:58:39.008Z,30.10
2023-06-19T12:01:06.189Z,30.23
2023-06-19T12:03:33.595Z,30.79
2023-06-19T12:06:00.833Z,30.52
2023-06-19T12:08:28.310Z,30.74
2023-06-19T12:10:55.376Z,30.24
2023-06-19T12:13:22.652Z,30.07
2023-06-19T12:15:51.187Z,30.03
2023-06-19T12:18:18.342Z,30.43
2023-06-19T12:20:45.344Z,30.04
2023-06-19T12:23:12.591Z,30.45
2023-06-19T12:25:39.773Z,30.42
2023-06-19T12:28:09.303Z,30.08
2023-06-19T12:30:37.523Z,29.97
2023-06-19T12:33:05.816Z,29.83
2023-06-19T12:35:33.856Z,29.88
2023-06-19T12:39:35.918Z,30.31
2023-06-19T12:42:03.225Z,29.99
2023-06-19T12:44:30.503Z,29.35
2023-06-19T12:46:59.790Z,30.05
2023-06-19T12:49:27.365Z,30.17
2023-06-19T12:51:54.548Z,30.19
2023-06-19T12:54:21.862Z,30.00
2023-06-19T12:56:49.647Z,29.79
2023-06-19T12:59:17.160Z,29.49
2023-06-19T13:01:44.248Z,29.94
2023-06-19T13:04:12.877Z,29.97
2023-06-19T13:06:42.051Z,29.92
2023-06-19T13:09:09.253Z,29.89
2023-06-19T13:11:39.175Z,29.63
2023-06-19T13:14:06.231Z,29.61
2023-06-19T13:16:45.977Z,29.58
2023-06-19T13:19:15.317Z,29.56
2023-06-19T13:21:43.035Z,29.76
2023-06-19T13:24:10.357Z,29.53
2023-06-19T13:26:37.929Z,29.78
2023-06-19T13:29:05.148Z,29.44
2023-06-19T13:31:32.585Z,29.88
2023-06-19T13:33:59.858Z,29.65
2023-06-19T13:36:28.266Z,29.18
2023-06-19T13:38:55.456Z,29.42
2023-06-19T13:41:25.230Z,28.97
2023-06-19T13:43:55.001Z,29.14
2023-06-19T13:46:25.044Z,29.26
2023-06-19T13:48:53.085Z,29.89
2023-06-19T13:51:21.108Z,29.27
2023-06-19T13:53:48.516Z,29.33
2023-06-19T13:56:15.707Z,29.15
2023-06-19T13:58:42.746Z,29.03
2023-06-19T14:01:09.939Z,29.22
2023-06-19T14:03:38.172Z,28.92
2023-06-19T14:06:05.276Z,28.55
2023-06-19T14:08:32.249Z,28.43
2023-06-19T14:10:59.186Z,28.62
2023-06-19T14:13:26.333Z,28.89
2023-06-19T14:15:54.378Z,28.67
2023-06-19T14:18:21.260Z,28.74
2023-06-19T14:20:48.325Z,28.77
2023-06-19T14:23:15.656Z,29.02
2023-06-19T14:25:44.890Z,28.88
2023-06-19T14:28:12.209Z,29.11
2023-06-19T14:30:39.168Z,29.17
2023-06-19T14:33:06.143Z,29.15
2023-06-19T14:35:33.387Z,29.46
2023-06-19T14:38:00.367Z,29.37
2023-06-19T14:40:27.903Z,29.09
2023-06-19T14:42:55.266Z,28.96
2023-06-19T14:45:22.201Z,29.39
2023-06-19T14:47:49.310Z,29.08
2023-06-19T14:50:16.400Z,29.24
2023-06-19T14:52:43.578Z,29.21
2023-06-19T14:55:11.451Z,29.58
2023-06-19T14:57:39.205Z,29.34
2023-06-19T15:00:06.977Z,29.36
2023-06-19T15:02:36.636Z,29.39
2023-06-19T15:05:06.973Z,29.47
2023-06-19T15:07:34.486Z,29.57
2023-06-19T15:10:01.408Z,29.46
2023-06-19T15:12:29.724Z,29.67
2023-06-19T15:14:56.798Z,29.60
2023-06-19T15:17:23.811Z,29.26
2023-06-19T15:19:50.752Z,29.56
2023-06-19T15:22:17.622Z,29.63
2023-06-19T15:24:44.545Z,29.69
2023-06-19T15:27:12.780Z,29.56
2023-06-19T15:29:40.078Z,29.79
2023-06-19T15:32:07.370Z,30.16
2023-06-19T15:34:34.762Z,30.32
2023-06-19T15:37:01.687Z,30.26
2023-06-19T15:39:31.957Z,29.55
2023-06-19T15:41:59.073Z,29.97
2023-06-19T15:44:26.038Z,29.85
2023-06-19T15:46:53.298Z,30.03
2023-06-19T15:49:20.293Z,29.88
2023-06-19T15:51:48.454Z,29.99
2023-06-19T15:54:15.491Z,30.29
2023-06-19T15:56:43.441Z,30.62
2023-06-19T15:59:10.388Z,30.24
2023-06-19T16:01:38.518Z,30.35
2023-06-19T16:04:06.004Z,30.21
2023-06-19T16:06:33.576Z,30.27
2023-06-19T16:09:00.824Z,30.17
2023-06-19T16:11:28.178Z,30.19
2023-06-19T16:13:55.418Z,30.39
2023-06-19T16:16:22.521Z,30.36
2023-06-19T16:18:50.128Z,30.75
2023-06-19T16:21:18.264Z,30.60
2023-06-19T16:23:45.292Z,30.78
2023-06-19T16:26:12.246Z,30.84
2023-06-19T16:28:39.347Z,30.83
2023-06-19T16:31:08.614Z,30.95
2023-06-19T16:33:36.740Z,31.02
2023-06-19T16:36:03.864Z,31.11
2023-06-19T16:38:31.053Z,31.26
2023-06-19T16:40:58.010Z,31.45
2023-06-19T16:43:25.170Z,31.57
2023-06-19T16:45:53.075Z,32.03
2023-06-19T16:48:20.157Z,31.75
2023-06-19T16:50:47.179Z,31.39
2023-06-19T16:53:14.363Z,31.78
2023-06-19T16:55:41.243Z,32.13
2023-06-19T16:58:08.091Z,32.25
2023-06-19T17:00:34.999Z,32.47
2023-06-19T17:03:02.193Z,32.02
2023-06-19T17:05:29.308Z,32.21
2023-06-19T17:07:56.207Z,32.50
2023-06-19T17:10:24.403Z,32.62
2023-06-19T17:12:52.184Z,32.63
2023-06-19T17:15:19.100Z,32.97
2023-06-19T17:17:46.296Z,33.11
2023-06-19T17:20:14.722Z,33.39
2023-06-19T17:22:42.390Z,33.45
2023-06-19T17:25:09.697Z,33.47
2023-06-19T17:27:38.415Z,33.70
2023-06-19T17:30:06.003Z,33.90
2023-06-19T17:32:34.713Z,33.99
2023-06-19T17:35:04.979Z,34.18
2023-06-19T17:37:32.445Z,34.35
2023-06-19T17:39:59.457Z,34.64
2023-06-19T17:42:26.565Z,34.81
2023-06-19T17:44:53.510Z,34.98
2023-06-19T17:47:20.556Z,35.28
2023-06-19T17:49:48.932Z,35.47
2023-06-19T17:52:18.011Z,35.56
2023-06-19T17:54:51.652Z,35.82
2023-06-19T17:57:18.688Z,36.13
2023-06-19T17:59:47.586Z,36.32
2023-06-19T18:02:14.831Z,36.24
2023-06-19T18:04:41.802Z,36.33
2023-06-19T18:07:10.315Z,36.60
2023-06-19T18:09:37.304Z,36.72
2023-06-19T18:12:04.677Z,36.91
2023-06-19T18:14:31.969Z,36.95
2023-06-19T18:17:02.515Z,37.08
2023-06-19T18:19:29.824Z,37.49
2023-06-19T18:21:56.898Z,37.49
2023-06-19T18:24:23.962Z,37.62
2023-06-19T18:26:50.958Z,37.94
2023-06-19T18:29:17.902Z,37.97
2023-06-19T18:31:44.999Z,37.80
2023-06-19T18:34:12.013Z,37.99
2023-06-19T18:36:39.086Z,38.27
2023-06-19T18:39:06.017Z,38.31
2023-06-19T18:41:34.217Z,38.46
2023-06-19T18:44:01.507Z,38.34
2023-06-19T18:46:28.462Z,38.49
2023-06-19T18:48:55.432Z,38.70
2023-06-19T18:51:22.411Z,38.81
2023-06-19T18:53:49.879Z,39.03
2023-06-19T18:56:18.966Z,39.00
2023-06-19T18:58:46.495Z,39.23
2023-06-19T19:01:14.196Z,39.11
2023-06-19T19:03:43.347Z,39.21
2023-06-19T19:06:10.352Z,39.31
2023-06-19T19:08:37.855Z,39.43
2023-06-19T19:11:05.067Z,39.53
2023-06-19T19:13:32.061Z,39.65
2023-06-19T19:15:59.086Z,39.75
2023-06-19T19:18:26.248Z,39.85
2023-06-19T19:20:53.211Z,40.10
2023-06-19T19:23:20.295Z,40.18
2023-06-19T19:25:47.454Z,40.26
2023-06-19T19:28:15.308Z,40.46
2023-06-19T19:30:42.890Z,40.52
2023-06-19T19:33:10.218Z,40.56
2023-06-19T19:35:37.242Z,40.58
2023-06-19T19:38:04.439Z,40.68
2023-06-19T19:40:31.616Z,40.67
2023-06-19T19:42:58.774Z,40.55
2023-06-19T19:45:25.886Z,40.50
2023-06-19T19:47:52.904Z,40.69
2023-06-19T19:50:20.192Z,40.70
2023-06-19T19:52:47.098Z,40.88
2023-06-19T19:55:16.869Z,41.17
2023-06-19T19:57:44.243Z,41.17
2023-06-19T20:00:11.955Z,41.22
2023-06-19T20:02:39.173Z,41.46
2023-06-19T20:05:06.525Z,42.08
2023-06-19T20:07:33.461Z,42.42
2023-06-19T20:10:01.617Z,43.05
2023-06-19T20:12:28.663Z,43.45
2023-06-19T20:14:55.648Z,43.20
2023-06-19T20:17:24.320Z,43.56
2023-06-19T20:19:53.450Z,44.30
2023-06-19T20:22:20.435Z,44.15
2023-06-19T20:24:47.517Z,44.58
2023-06-19T20:27:17.127Z,45.25
2023-06-19T20:29:44.072Z,45.72
2023-06-19T20:32:11.109Z,46.29
2023-06-19T20:34:38.544Z,46.64
2023-06-19T20:37:05.909Z,47.10
2023-06-19T20:39:34.611Z,47.59
2023-06-19T20:42:03.285Z,48.24
2023-06-19T20:44:31.021Z,48.51
2023-06-19T20:46:59.933Z,48.85
2023-06-19T20:49:28.625Z,49.41
2023-06-19T20:51:55.590Z,49.46
2023-06-19T20:54:22.643Z,49.84
2023-06-19T20:56:50.049Z,50.17
2023-06-19T20:59:16.992Z,50.48
2023-06-19T21:01:44.023Z,51.21
2023-06-19T21:04:11.200Z,51.92
2023-06-19T21:06:38.639Z,52.24
2023-06-19T21:09:07.604Z,52.93
2023-06-19T21:11:35.219Z,53.32
2023-06-19T21:14:02.122Z,53.64
2023-06-19T21:16:29.128Z,54.20
2023-06-19T21:18:56.024Z,54.71
2023-06-19T21:21:22.988Z,54.98
2023-06-19T21:23:49.893Z,55.50
2023-06-19T21:26:17.278Z,55.56
2023-06-19T21:28:44.380Z,55.94
2023-06-19T21:31:11.433Z,56.42
2023-06-19T21:33:38.570Z,56.86
2023-06-19T21:36:06.000Z,57.43
2023-06-19T21:38:34.582Z,57.78
2023-06-19T21:41:04.929Z,58.20
2023-06-19T21:43:32.430Z,58.47
2023-06-19T21:45:59.693Z,58.78
2023-06-19T21:48:27.096Z,58.96
2023-06-19T21:50:54.204Z,59.27
2023-06-19T21:53:21.125Z,59.59
2023-06-19T21:55:47.982Z,60.09
2023-06-19T21:58:14.948Z,60.68
2023-06-19T22:00:41.888Z,61.07
2023-06-19T22:03:08.962Z,61.20
2023-06-19T22:05:36.352Z,61.55
2023-06-19T22:08:03.446Z,61.46
2023-06-19T22:10:30.599Z,61.71
2023-06-19T22:12:57.948Z,62.36
2023-06-19T22:15:24.954Z,62.55
2023-06-19T22:17:52.027Z,62.69
2023-06-19T22:20:19.749Z,62.64
2023-06-19T22:22:47.365Z,62.44
2023-06-19T22:25:14.858Z,62.28
2023-06-19T22:27:45.076Z,62.42
2023-06-19T22:30:13.342Z,62.88
2023-06-19T22:32:40.380Z,63.37
2023-06-19T22:35:07.710Z,63.85
2023-06-19T22:37:35.752Z,64.34
2023-06-19T22:40:04.731Z,64.62
2023-06-19T22:42:32.445Z,65.01
2023-06-19T22:44:59.321Z,65.38
2023-06-19T22:47:26.256Z,65.82
2023-06-19T22:49:53.174Z,66.27
2023-06-19T22:52:20.767Z,66.78
2023-06-19T22:54:47.849Z,67.49
2023-06-19T22:57:14.888Z,67.94
2023-06-19T22:59:41.819Z,68.42
2023-06-19T23:02:08.712Z,68.71
2023-06-19T23:04:35.757Z,69.04
2023-06-19T23:07:03.300Z,69.38
2023-06-19T23:09:33.669Z,69.57
2023-06-19T23:12:02.269Z,69.99
2023-06-19T23:14:29.646Z,70.48
2023-06-19T23:16:57.414Z,70.97
2023-06-19T23:19:25.428Z,71.36
2023-06-19T23:21:52.526Z,71.62
2023-06-19T23:24:19.557Z,72.07
2023-06-19T23:26:50.082Z,72.28
2023-06-19T23:29:16.970Z,72.30
2023-06-19T23:31:43.855Z,72.15
2023-06-19T23:34:10.864Z,72.22
2023-06-19T23:36:37.944Z,72.38
2023-06-19T23:39:04.797Z,72.49
2023-06-19T23:41:32.311Z,72.81
2023-06-19T23:43:59.276Z,73.15
2023-06-19T23:46:26.261Z,73.32
2023-06-19T23:48:53.374Z,73.57
2023-06-19T23:51:20.642Z,73.75
2023-06-19T23:53:47.802Z,74.04
2023-06-19T23:56:14.747Z,74.17
2023-06-19T23:58:42.176Z,74.10
